Time;durP1;ratioP1;P1;durP2;ratioP2;P2;SDS_P1;SDS_P2;PMS_P1;PMS_P2;Temp;Humidity;BMP_temperature;BMP_pressure;BME280_temperature;BME280_humidity;BME280_pressure;Samples;Min_cycle;Max_cycle;Signal;HPM_P1;HPM_P2
2021/09/04 00:00:30;;;;;;;4.18;3.13;;;22.20;54.00;;;26.15;36.42;101678.66;5095112;28;20040;-8
2021/09/04 00:02:57;;;;;;;4.07;3.50;;;22.20;54.10;;;26.12;36.50;101665.47;5095135;28;20071;-8
2021/09/04 00:05:24;;;;;;;3.10;2.80;;;22.20;54.00;;;26.14;36.77;101674.25;5095154;28;20058;-8
2021/09/04 00:07:50;;;;;;;3.47;3.05;;;22.20;54.10;;;26.13;36.59;101667.16;5095140;28;20104;-8
2021/09/04 00:10:18;;;;;;;3.30;2.67;;;22.20;54.10;;;26.12;36.41;101668.16;5095011;28;20052;-8
2021/09/04 00:12:44;;;;;;;3.22;2.88;;;22.20;54.10;;;26.11;36.55;101658.38;5094857;28;20501;-8
2021/09/04 00:15:11;;;;;;;4.10;2.92;;;22.20;54.10;;;26.13;36.75;101665.38;5095141;28;20054;-8
2021/09/04 00:17:43;;;;;;;3.13;2.80;;;22.20;54.10;;;26.15;36.63;101660.75;5095350;28;20079;-8
2021/09/04 00:20:10;;;;;;;3.10;2.63;;;22.20;54.10;;;26.12;36.58;101660.13;5094652;28;20101;-8
2021/09/04 00:22:36;;;;;;;3.83;2.83;;;22.20;54.10;;;26.13;36.58;101668.06;5094691;28;20048;-8
2021/09/04 00:25:02;;;;;;;3.03;2.72;;;22.20;54.10;;;26.11;36.41;101664.63;5094521;28;20044;-8
2021/09/04 00:27:28;;;;;;;3.05;2.50;;;22.20;54.10;;;26.14;36.44;101663.53;5094715;28;20059;-8
2021/09/04 00:29:54;;;;;;;4.00;2.92;;;22.20;54.10;;;26.10;36.49;101659.38;5094773;28;20044;-8
2021/09/04 00:32:20;;;;;;;3.65;2.70;;;22.20;54.00;;;26.13;36.53;101667.16;5094998;28;20558;-8
2021/09/04 00:34:46;;;;;;;2.97;2.63;;;22.20;54.10;;;26.12;36.40;101670.84;5093883;28;20048;-8
2021/09/04 00:37:11;;;;;;;3.13;2.83;;;22.10;54.10;;;26.11;36.45;101669.13;5094788;28;20070;-8
2021/09/04 00:39:37;;;;;;;3.28;2.78;;;22.20;54.10;;;26.09;36.37;101669.22;5094612;28;20048;-8
2021/09/04 00:42:03;;;;;;;4.22;3.30;;;22.20;54.10;;;26.13;36.61;101672.53;5094538;28;20044;-8
2021/09/04 00:44:30;;;;;;;2.72;2.50;;;22.20;54.10;;;26.10;36.46;101672.78;5094441;28;20088;-8
2021/09/04 00:47:03;;;;;;;2.60;2.40;;;22.20;54.10;;;26.10;36.63;101662.91;5094739;28;20081;-8
2021/09/04 00:49:31;;;;;;;3.25;2.67;;;22.20;54.10;;;26.11;36.67;101672.66;5094524;28;20048;-8
2021/09/04 00:51:57;;;;;;;2.85;2.30;;;22.20;54.20;;;26.09;36.58;101660.34;5094353;28;20054;-8
2021/09/04 00:54:22;;;;;;;2.78;2.55;;;22.10;54.00;;;26.10;36.32;101670.94;5094383;28;20060;-8
2021/09/04 00:56:48;;;;;;;3.15;2.85;;;22.20;54.10;;;26.10;36.58;101662.06;5094306;28;20044;-8
2021/09/04 00:59:15;;;;;;;3.55;2.90;;;22.20;54.20;;;26.09;36.52;101663.84;5076780;28;20359;-8
2021/09/04 01:01:41;;;;;;;3.33;2.67;;;22.20;54.10;;;26.10;36.61;101662.91;5094841;28;20097;-8
2021/09/04 01:04:07;;;;;;;4.03;2.80;;;22.20;54.10;;;26.07;36.59;101657.75;5094218;28;20048;-8
2021/09/04 01:06:35;;;;;;;2.50;2.30;;;22.20;54.10;;;26.09;36.53;101666.53;5094253;28;20123;-8
2021/09/04 01:09:01;;;;;;;2.58;2.20;;;22.20;54.10;;;26.08;36.53;101659.47;5094047;28;20044;-8
2021/09/04 01:11:29;;;;;;;3.15;2.60;;;22.20;54.10;;;26.10;36.31;101662.91;5092615;28;20138;-8
2021/09/04 01:13:55;;;;;;;2.70;2.50;;;22.20;54.10;;;26.05;36.59;101657.88;5094136;28;20077;-8
2021/09/04 01:16:21;;;;;;;2.85;2.58;;;22.10;54.10;;;26.09;36.47;101669.22;5094401;28;20055;-8
2021/09/04 01:18:47;;;;;;;3.55;2.72;;;22.20;54.10;;;26.09;36.50;101663.84;5094259;28;20048;-8
2021/09/04 01:21:14;;;;;;;4.05;2.83;;;22.10;54.10;;;26.06;36.40;101659.59;5093997;28;20054;-8
2021/09/04 01:23:40;;;;;;;3.35;2.70;;;22.10;54.10;;;26.06;36.56;101664.94;5094188;28;20044;-8
2021/09/04 01:26:08;;;;;;;3.00;2.63;;;22.10;54.10;;;26.03;36.60;101657.13;5094012;28;20093;-8
2021/09/04 01:28:35;;;;;;;3.33;2.70;;;22.10;54.10;;;26.05;36.43;101663.22;5093868;28;20055;-9
2021/09/04 01:31:03;;;;;;;2.45;2.25;;;22.10;54.00;;;26.05;36.26;101663.22;5093895;28;20047;-8
2021/09/04 01:33:28;;;;;;;2.92;2.55;;;22.20;54.10;;;26.07;36.57;101655.06;5093825;28;20413;-8
2021/09/04 01:35:54;;;;;;;3.50;2.75;;;22.10;54.10;;;26.07;36.63;101663.13;5093756;28;20040;-8
2021/09/04 01:38:21;;;;;;;3.17;2.72;;;22.10;54.10;;;26.06;36.27;101664.94;5094063;28;20044;-8
2021/09/04 01:40:47;;;;;;;3.30;2.80;;;22.10;54.10;;;26.02;36.63;101659.91;5093605;28;20055;-8
2021/09/04 01:43:12;;;;;;;2.92;2.40;;;22.10;54.10;;;26.04;36.59;101655.28;5093637;28;20513;-8
2021/09/04 01:45:38;;;;;;;2.42;2.22;;;22.10;54.10;;;26.04;36.51;101657.97;5093574;28;20082;-8
2021/09/04 01:48:04;;;;;;;3.55;2.90;;;22.10;54.10;;;26.04;36.57;101656.16;5093590;28;20044;-8
2021/09/04 01:50:31;;;;;;;3.03;2.40;;;22.10;54.10;;;26.05;36.47;101655.19;5093821;28;20040;-8
2021/09/04 01:52:57;;;;;;;4.28;2.92;;;22.10;54.00;;;26.05;36.47;101651.66;5093516;28;20048;-8
2021/09/04 01:55:24;;;;;;;2.92;2.35;;;22.10;54.00;;;26.06;36.40;101653.34;5093446;28;20383;-8
2021/09/04 01:57:50;;;;;;;2.60;2.40;;;22.10;54.10;;;26.03;36.46;101641.03;5093900;28;20089;-8
2021/09/04 02:00:17;;;;;;;3.00;2.55;;;22.10;54.00;;;26.04;36.48;101642.78;5093039;28;20375;-8
2021/09/04 02:02:43;;;;;;;2.60;2.35;;;22.10;54.00;;;26.02;36.41;101641.16;5093025;28;20044;-8
2021/09/04 02:05:10;;;;;;;3.55;2.63;;;22.10;54.10;;;26.04;36.50;101633.84;5093139;28;20044;-8
2021/09/04 02:07:37;;;;;;;3.08;2.47;;;22.10;54.00;;;26.04;36.54;101633.84;5092713;28;20055;-8
2021/09/04 02:10:06;;;;;;;2.92;2.53;;;22.10;54.00;;;26.02;36.51;101623.25;5093635;28;20052;-8
2021/09/04 02:12:31;;;;;;;2.88;2.53;;;22.10;54.00;;;26.04;36.48;101637.41;5093056;28;20052;-8
2021/09/04 02:14:57;;;;;;;2.83;2.40;;;22.10;54.00;;;26.03;36.35;101635.69;5092960;28;20051;-8
2021/09/04 02:17:24;;;;;;;2.35;2.15;;;22.10;54.00;;;26.02;36.64;101622.41;5092890;28;20090;-8
2021/09/04 02:19:51;;;;;;;2.90;2.50;;;22.10;54.00;;;26.01;36.59;101624.22;5092937;28;20048;-8
2021/09/04 02:22:17;;;;;;;2.65;2.45;;;22.10;54.10;;;26.03;36.47;101616.09;5092995;28;20048;-8
2021/09/04 02:24:43;;;;;;;2.22;2.03;;;22.10;54.00;;;26.03;36.61;101624.13;5093027;28;20048;-8
2021/09/04 02:27:09;;;;;;;3.30;2.83;;;22.10;54.00;;;26.01;36.40;101618.88;5092910;28;20075;-8
2021/09/04 02:29:36;;;;;;;3.40;2.40;;;22.10;54.00;;;26.01;36.46;101624.22;5092869;28;20059;-8
2021/09/04 02:32:02;;;;;;;2.97;2.53;;;22.10;54.00;;;26.05;36.59;101630.22;5092977;28;20048;-8
2021/09/04 02:34:28;;;;;;;2.92;2.50;;;22.10;54.00;;;26.04;36.61;101620.44;5092779;28;20097;-8
2021/09/04 02:36:55;;;;;;;2.08;1.88;;;22.10;54.00;;;26.04;36.46;101625.81;5093045;28;20051;-8
2021/09/04 02:39:21;;;;;;;2.65;2.20;;;22.10;54.00;;;26.03;36.54;101619.59;5092931;28;20079;-8
2021/09/04 02:41:48;;;;;;;2.85;2.30;;;22.10;54.00;;;26.02;36.62;101619.72;5092638;28;20447;-8
2021/09/04 02:44:14;;;;;;;2.83;2.53;;;22.10;54.00;;;26.03;36.55;101618.75;5072401;28;20428;-8
2021/09/04 02:46:41;;;;;;;2.70;2.10;;;22.10;54.00;;;26.04;36.38;101615.09;5092706;28;20066;-8
2021/09/04 02:49:07;;;;;;;3.90;2.53;;;22.10;54.00;;;25.98;36.42;101608.38;5092582;28;20055;-8
2021/09/04 02:51:35;;;;;;;2.58;2.38;;;22.10;54.00;;;26.00;36.53;101609.09;5092546;28;20426;-8
2021/09/04 02:54:01;;;;;;;2.63;2.35;;;22.10;54.00;;;26.02;36.53;101609.00;5092664;28;20139;-8
2021/09/04 02:56:27;;;;;;;3.03;2.47;;;22.10;54.00;;;26.03;36.63;101616.09;5093016;28;20048;-8
2021/09/04 02:58:55;;;;;;;2.90;2.47;;;22.10;54.00;;;26.00;36.57;101614.47;5099234;28;20048;-8
2021/09/04 03:01:21;;;;;;;2.47;2.13;;;22.10;54.00;;;26.02;36.53;101620.56;5099382;28;20039;-8
2021/09/04 03:03:47;;;;;;;3.03;2.38;;;22.10;54.00;;;26.00;36.55;101611.78;5099139;28;20056;-8
2021/09/04 03:06:13;;;;;;;2.75;2.40;;;22.10;54.00;;;26.02;36.52;101614.34;5099189;28;20400;-8
2021/09/04 03:08:38;;;;;;;2.55;2.08;;;22.10;54.00;;;26.03;36.38;101618.75;5099236;28;20401;-8
2021/09/04 03:11:05;;;;;;;2.20;1.92;;;22.10;53.90;;;26.02;36.47;101614.34;5099154;28;20097;-8
2021/09/04 03:13:32;;;;;;;3.13;2.60;;;22.10;54.00;;;26.00;36.54;101611.78;5099167;28;20055;-8
2021/09/04 03:15:58;;;;;;;2.95;2.33;;;22.10;54.00;;;26.02;36.47;101615.19;5099696;28;20496;-8
2021/09/04 03:18:24;;;;;;;2.75;2.45;;;22.10;53.90;;;26.01;36.44;101618.88;5099097;28;20054;-8
2021/09/04 03:20:49;;;;;;;2.22;1.90;;;22.10;53.90;;;26.01;36.50;101624.22;5098947;28;20135;-8
2021/09/04 03:23:16;;;;;;;3.42;2.70;;;22.10;53.90;;;26.03;36.29;101622.28;5098803;28;20044;-8
2021/09/04 03:25:44;;;;;;;2.38;2.17;;;22.10;54.00;;;26.01;36.41;101618.88;5098983;28;20056;-8
2021/09/04 03:28:09;;;;;;;3.03;2.20;;;22.10;53.90;;;26.01;36.39;101612.63;5096249;28;20067;-9
2021/09/04 03:30:36;;;;;;;2.40;2.20;;;22.10;53.90;;;26.02;36.46;101620.56;5098989;28;20405;-8
2021/09/04 03:33:02;;;;;;;2.45;2.25;;;22.10;53.90;;;26.00;36.54;101617.13;5098848;28;20441;-8
2021/09/04 03:35:28;;;;;;;2.90;2.65;;;22.10;53.90;;;26.00;36.44;101616.28;5099145;28;20048;-8
2021/09/04 03:37:55;;;;;;;2.42;2.20;;;22.10;53.90;;;26.00;36.42;101622.50;5098742;28;20123;-9
2021/09/04 03:40:21;;;;;;;2.15;1.95;;;22.10;53.90;;;26.03;36.44;101621.44;5099103;28;20399;-8
2021/09/04 03:42:47;;;;;;;2.85;2.30;;;22.10;53.90;;;26.02;36.51;101625.06;5098691;28;20040;-8
2021/09/04 03:45:13;;;;;;;2.33;2.13;;;22.10;53.90;;;26.00;36.49;101622.50;5098873;28;20048;-8
2021/09/04 03:47:40;;;;;;;2.55;2.20;;;22.10;53.90;;;25.98;36.51;101610.19;5098561;28;20052;-8
2021/09/04 03:50:07;;;;;;;2.65;2.17;;;22.10;53.90;;;25.98;36.33;101612.88;5098476;28;20059;-8
2021/09/04 03:52:33;;;;;;;2.30;2.10;;;22.10;53.90;;;26.00;36.44;101619.81;5098539;28;20075;-8
2021/09/04 03:54:59;;;;;;;2.38;2.17;;;22.10;53.90;;;25.98;36.34;101619.09;5098484;28;20055;-8
2021/09/04 03:57:27;;;;;;;2.40;2.20;;;22.10;53.80;;;26.03;36.41;101626.81;5099117;28;20055;-8
2021/09/04 03:59:53;;;;;;;2.63;1.90;;;22.10;53.80;;;26.00;36.34;101622.50;5098289;28;20532;-8
2021/09/04 04:02:19;;;;;;;2.70;2.00;;;22.10;53.80;;;26.00;36.32;101622.50;5098535;28;20397;-8
2021/09/04 04:04:45;;;;;;;2.40;2.10;;;22.10;53.80;;;26.02;36.41;101628.59;5098420;28;20059;-8
2021/09/04 04:07:11;;;;;;;2.58;2.30;;;22.10;53.80;;;26.01;36.39;101618.88;5098739;28;20055;-8
2021/09/04 04:09:37;;;;;;;2.55;2.08;;;22.10;53.80;;;26.02;36.35;101628.59;5094627;28;20048;-8
2021/09/04 04:12:04;;;;;;;2.42;2.22;;;22.10;53.80;;;26.01;36.41;101616.19;5094974;28;20444;-8
2021/09/04 04:14:30;;;;;;;2.15;1.95;;;22.10;53.80;;;26.02;36.42;101622.41;5095107;28;20097;-8
2021/09/04 04:16:56;;;;;;;2.50;2.30;;;22.10;53.80;;;26.00;36.41;101603.75;5094831;28;20056;-8
2021/09/04 04:19:22;;;;;;;2.78;2.45;;;22.10;53.80;;;26.00;36.47;101617.13;5094704;28;20097;-8
2021/09/04 04:21:48;;;;;;;2.30;2.10;;;22.10;53.80;;;26.03;36.27;101616.94;5094926;28;20044;-8
2021/09/04 04:24:14;;;;;;;2.50;2.30;;;22.10;53.80;;;26.01;36.32;101613.50;5094729;28;20055;-8
2021/09/04 04:26:41;;;;;;;2.33;1.88;;;22.10;53.70;;;26.01;36.40;101610.81;5094876;28;20076;-8
2021/09/04 04:29:06;;;;;;;2.30;2.10;;;22.10;53.70;;;26.03;36.30;101616.94;5094661;28;20071;-8
2021/09/04 04:31:34;;;;;;;2.65;2.33;;;22.10;53.80;;;26.01;36.31;101620.66;5077089;28;20082;-8
2021/09/04 04:34:01;;;;;;;2.28;2.03;;;22.10;53.70;;;26.00;36.16;101610.94;5094655;28;20075;-8
2021/09/04 04:36:27;;;;;;;2.97;2.17;;;22.10;53.70;;;26.02;36.41;101622.41;5094733;28;20513;-8
2021/09/04 04:38:53;;;;;;;2.63;2.42;;;22.10;53.80;;;26.03;36.45;101624.97;5094465;28;20048;-8
2021/09/04 04:41:19;;;;;;;2.53;2.10;;;22.10;53.70;;;26.03;36.35;101634.84;5094597;28;20055;-8
2021/09/04 04:43:46;;;;;;;2.80;2.40;;;22.10;53.70;;;26.02;36.33;101625.06;5094424;28;20105;-8
2021/09/04 04:46:12;;;;;;;2.08;1.80;;;22.10;53.80;;;26.01;36.47;101621.53;5094558;28;20402;-8
2021/09/04 04:48:38;;;;;;;3.10;2.20;;;22.10;53.70;;;26.01;36.34;101618.88;5094819;28;20381;-8
2021/09/04 04:51:05;;;;;;;2.42;2.22;;;22.10;53.70;;;26.00;36.35;101616.28;5094454;28;20452;-8
2021/09/04 04:53:30;;;;;;;2.92;2.40;;;22.10;53.80;;;26.02;36.31;101625.91;5094800;28;20052;-8
2021/09/04 04:55:57;;;;;;;2.40;1.92;;;22.10;53.70;;;25.99;36.48;101617.25;5094940;28;20039;-8
2021/09/04 04:58:23;;;;;;;3.58;2.45;;;22.10;53.70;;;26.00;36.42;101613.63;5094346;28;20048;-8
2021/09/04 05:00:51;;;;;;;2.35;2.15;;;22.10;53.70;;;26.00;36.39;101617.13;5094333;28;20060;-8
2021/09/04 05:03:16;;;;;;;3.42;2.30;;;22.10;53.70;;;26.03;36.29;101622.28;5094216;28;20412;-8
2021/09/04 05:05:42;;;;;;;2.20;1.92;;;22.10;53.70;;;26.02;36.36;101625.91;5094182;28;20036;-8
2021/09/04 05:08:10;;;;;;;2.90;2.22;;;22.10;53.60;;;26.02;36.32;101628.59;5094208;28;20046;-8
2021/09/04 05:10:36;;;;;;;2.17;1.85;;;22.10;53.60;;;26.01;36.40;101620.66;5094236;28;20051;-8
2021/09/04 05:13:02;;;;;;;2.72;2.08;;;22.10;53.70;;;26.02;36.23;101622.41;5094377;28;20105;-8
2021/09/04 05:15:28;;;;;;;2.63;2.25;;;22.20;53.70;;;26.02;36.26;101622.41;5093802;28;20494;-8
2021/09/04 05:17:57;;;;;;;2.70;2.03;;;22.10;53.60;;;26.01;36.32;101621.53;5093971;28;20036;-8
2021/09/04 05:20:24;;;;;;;2.70;2.00;;;22.10;53.70;;;26.03;36.37;101621.44;5093680;28;20048;-8
2021/09/04 05:22:54;;;;;;;2.10;1.90;;;22.10;53.60;;;26.02;36.22;101617.88;5094116;28;20059;-8
2021/09/04 05:25:21;;;;;;;1.92;1.70;;;22.10;53.60;;;26.04;36.35;101618.66;5075969;28;20541;-8
2021/09/04 05:27:47;;;;;;;3.85;2.35;;;22.10;53.60;;;26.04;36.25;101617.78;5092927;28;20066;-8
2021/09/04 05:30:13;;;;;;;3.08;2.05;;;22.10;53.60;;;26.02;36.37;101614.34;5093777;28;20198;-9
2021/09/04 05:32:39;;;;;;;2.60;2.00;;;22.10;53.60;;;26.03;36.20;101614.25;5093926;28;20134;-8
2021/09/04 05:35:05;;;;;;;2.20;1.95;;;22.10;53.60;;;26.06;36.25;101626.56;5093922;28;20040;-8
2021/09/04 05:37:31;;;;;;;2.05;1.63;;;22.10;53.50;;;26.03;36.42;101616.94;5093590;28;20048;-8
2021/09/04 05:39:57;;;;;;;1.98;1.80;;;22.20;53.60;;;26.05;36.28;101616.81;5093421;28;20052;-8
2021/09/04 05:42:23;;;;;;;2.13;1.92;;;22.20;53.60;;;26.04;36.30;101615.09;5093691;28;20525;-8
2021/09/04 05:44:48;;;;;;;2.08;1.83;;;22.10;53.50;;;26.05;36.29;101614.97;5094108;28;20056;-8
2021/09/04 05:47:14;;;;;;;2.13;1.92;;;22.20;53.50;;;26.03;36.40;101608.88;5093655;28;20048;-8
2021/09/04 05:49:40;;;;;;;2.10;1.90;;;22.20;53.50;;;26.06;36.11;101622.06;5074674;28;20055;-9
2021/09/04 05:52:06;;;;;;;1.90;1.77;;;22.20;53.50;;;26.04;36.11;101615.97;5093546;28;20168;-8
2021/09/04 05:54:32;;;;;;;2.47;1.90;;;22.20;53.50;;;26.06;36.36;101616.72;5093576;28;20058;-8
2021/09/04 05:56:58;;;;;;;3.00;2.63;;;22.20;53.50;;;26.06;36.12;101616.72;5093436;28;20040;-8
2021/09/04 05:59:23;;;;;;;2.20;2.00;;;22.20;53.40;;;26.08;36.18;101613.94;5093235;28;20060;-8
2021/09/04 06:01:49;;;;;;;2.78;2.03;;;22.20;53.40;;;26.04;36.20;101605.25;5092123;28;20044;-8
2021/09/04 06:04:15;;;;;;;2.33;1.95;;;22.20;53.40;;;26.05;36.14;101612.31;5093241;28;20047;-8
2021/09/04 06:06:41;;;;;;;2.30;1.90;;;22.20;53.40;;;26.08;36.17;101616.59;5093338;28;20417;-8
2021/09/04 06:09:07;;;;;;;1.90;1.65;;;22.20;53.40;;;26.06;36.17;101610.47;5093534;28;20048;-8
2021/09/04 06:11:33;;;;;;;2.40;2.20;;;22.20;53.40;;;26.08;36.11;101613.94;5093587;28;20044;-8
2021/09/04 06:14:00;;;;;;;2.63;2.13;;;22.20;53.30;;;26.08;36.04;101616.59;5093165;28;20126;-8
2021/09/04 06:16:27;;;;;;;2.38;2.05;;;22.20;53.30;;;26.09;36.20;101620.97;5093446;28;20044;-8
2021/09/04 06:18:53;;;;;;;1.83;1.73;;;22.20;53.20;;;26.12;36.14;101622.59;5092962;28;20105;-8
2021/09/04 06:21:19;;;;;;;1.95;1.75;;;22.20;53.20;;;26.10;36.15;101620.03;5093175;28;20044;-8
2021/09/04 06:23:45;;;;;;;1.83;1.63;;;22.20;53.20;;;26.11;36.13;101624.44;5075119;28;20140;-8
2021/09/04 06:26:10;;;;;;;1.77;1.65;;;22.30;53.20;;;26.13;36.11;101629.66;5093001;28;20083;-8
2021/09/04 06:28:37;;;;;;;1.95;1.70;;;22.30;53.10;;;26.13;35.99;101626.97;5074654;28;20056;-9
2021/09/04 06:31:02;;;;;;;2.33;2.00;;;22.30;53.10;;;26.13;36.00;101625.16;5092773;28;20401;-8
2021/09/04 06:33:28;;;;;;;1.42;1.33;;;22.30;53.10;;;26.13;36.21;101627.84;5092237;28;20044;-8
2021/09/04 06:35:54;;;;;;;1.92;1.75;;;22.30;53.10;;;26.13;35.89;101625.16;5092926;28;20047;-8
2021/09/04 06:38:20;;;;;;;2.05;1.75;;;22.30;53.10;;;26.13;36.01;101624.28;5092774;28;20048;-8
2021/09/04 06:40:47;;;;;;;2.33;1.95;;;22.30;53.10;;;26.14;36.00;101632.22;5074751;28;20048;-8
2021/09/04 06:43:13;;;;;;;2.03;1.83;;;22.30;53.10;;;26.15;35.86;101633.94;5092946;28;20048;-8
2021/09/04 06:45:39;;;;;;;1.80;1.70;;;22.30;53.00;;;26.15;36.00;101628.59;5092828;28;20125;-8
2021/09/04 06:48:05;;;;;;;2.00;1.80;;;22.30;53.00;;;26.18;36.06;101630.19;5092560;28;20040;-8
2021/09/04 06:50:32;;;;;;;1.73;1.63;;;22.30;53.00;;;26.19;36.02;101639.94;5092730;28;20078;-8
2021/09/04 06:52:57;;;;;;;1.85;1.67;;;22.30;52.90;;;26.18;35.93;101627.53;5092640;28;20056;-8
2021/09/04 06:55:24;;;;;;;2.03;1.55;;;22.30;52.90;;;26.18;35.89;101630.19;5092695;28;20040;-8
2021/09/04 06:57:50;;;;;;;1.80;1.70;;;22.30;52.90;;;26.18;35.89;101624.84;5092607;28;20048;-9
2021/09/04 07:00:17;;;;;;;1.67;1.50;;;22.30;52.80;;;26.20;35.85;101633.63;5092768;28;20047;-8
2021/09/04 07:02:42;;;;;;;1.70;1.60;;;22.40;52.80;;;26.20;35.75;101625.56;5092926;28;20051;-8
2021/09/04 07:05:08;;;;;;;2.20;2.00;;;22.40;52.90;;;26.23;35.95;101630.72;5074268;28;20067;-8
2021/09/04 07:07:34;;;;;;;1.67;1.58;;;22.40;52.80;;;26.23;35.81;101633.41;5092452;28;20047;-8
2021/09/04 07:10:00;;;;;;;1.73;1.63;;;22.40;52.70;;;26.25;35.75;101632.31;5092266;28;20181;-8
2021/09/04 07:12:25;;;;;;;1.75;1.60;;;22.40;52.60;;;26.27;35.77;101634.03;5092394;28;20535;-8
2021/09/04 07:14:51;;;;;;;2.20;1.80;;;22.50;52.60;;;26.27;35.71;101623.31;5092651;28;20489;-8
2021/09/04 07:17:17;;;;;;;2.40;1.80;;;22.50;52.50;;;26.30;35.67;101629.31;5092290;28;20052;-8
2021/09/04 07:19:44;;;;;;;1.85;1.75;;;22.50;53.00;;;26.29;35.60;101635.63;5092153;28;20461;-8
2021/09/04 07:22:09;;;;;;;2.60;2.00;;;22.50;52.40;;;26.31;35.69;101630.16;5092267;28;20489;-8
2021/09/04 07:24:35;;;;;;;1.70;1.60;;;22.50;52.40;;;26.34;35.61;101627.25;5092425;28;20059;-8
2021/09/04 07:27:01;;;;;;;1.70;1.60;;;22.50;52.30;;;26.34;35.75;101636.13;5092197;28;20055;-8
2021/09/04 07:29:27;;;;;;;2.05;1.70;;;22.50;52.30;;;26.36;35.57;101639.59;5092102;28;20054;-8
2021/09/04 07:31:52;;;;;;;2.10;1.83;;;22.60;52.10;;;26.38;35.65;101644.81;5092419;28;20052;-8
2021/09/04 07:34:18;;;;;;;1.50;1.40;;;22.60;52.10;;;26.40;35.72;101643.75;5092031;28;20055;-8
2021/09/04 07:36:44;;;;;;;2.03;1.83;;;22.60;52.00;;;26.40;35.41;101642.91;5092348;28;20489;-8
2021/09/04 07:39:10;;;;;;;2.00;1.67;;;22.70;52.00;;;26.41;35.37;101639.22;5092101;28;20386;-8
2021/09/04 07:41:35;;;;;;;2.55;1.90;;;22.70;51.90;;;26.43;35.32;101631.94;5092298;28;20482;-8
2021/09/04 07:44:01;;;;;;;1.90;1.67;;;22.70;51.90;;;26.43;35.39;101634.63;5094017;28;20490;-8
2021/09/04 07:46:27;;;;;;;1.98;1.38;;;22.70;51.90;;;26.48;35.51;101640.50;5077560;28;20525;-8
2021/09/04 07:48:53;;;;;;;1.80;1.70;;;22.70;51.90;;;26.48;35.58;101640.50;5095743;28;20058;-8
2021/09/04 07:51:18;;;;;;;2.25;1.90;;;22.80;51.60;;;26.54;35.29;101637.34;5095410;28;20044;-8
2021/09/04 07:53:44;;;;;;;1.83;1.67;;;23.00;51.50;;;26.56;35.46;101647.97;5095387;28;20040;-8
2021/09/04 07:56:10;;;;;;;1.60;1.50;;;23.00;51.30;;;26.62;35.37;101650.22;5095393;28;20040;-8
2021/09/04 07:58:36;;;;;;;1.92;1.67;;;23.10;51.00;;;26.68;35.12;101652.47;5095280;28;20059;-8
2021/09/04 08:01:02;;;;;;;1.88;1.67;;;23.10;51.40;;;26.66;35.09;101651.72;5095254;28;20410;-8
2021/09/04 08:03:27;;;;;;;2.30;1.67;;;23.10;50.90;;;26.72;35.24;101653.97;5095449;28;20060;-8
2021/09/04 08:05:53;;;;;;;2.08;1.88;;;23.10;50.90;;;26.71;35.18;101646.88;5095454;28;20044;-8
2021/09/04 08:08:19;;;;;;;1.98;1.77;;;23.10;50.90;;;26.75;34.97;101642.16;5076931;28;20051;-9
2021/09/04 08:10:45;;;;;;;1.55;1.42;;;23.20;50.80;;;26.76;35.05;101639.38;5094178;28;20048;-8
2021/09/04 08:13:11;;;;;;;2.22;1.77;;;23.20;50.70;;;26.79;35.02;101641.78;5095605;28;20048;-8
2021/09/04 08:15:38;;;;;;;1.33;1.23;;;23.20;50.70;;;26.80;34.95;101640.84;5095133;28;20044;-8
2021/09/04 08:18:04;;;;;;;1.85;1.70;;;23.30;50.60;;;26.86;35.08;101647.56;5094985;28;20044;-8
2021/09/04 08:20:30;;;;;;;1.90;1.70;;;23.40;50.40;;;26.89;34.85;101641.13;5094956;28;20421;-8
2021/09/04 08:22:56;;;;;;;1.60;1.50;;;23.40;50.30;;;26.92;34.81;101648.94;5094865;28;20143;-8
2021/09/04 08:25:22;;;;;;;3.10;1.80;;;23.40;50.40;;;26.96;34.67;101653.09;5094821;28;20048;-8
2021/09/04 08:27:50;;;;;;;1.70;1.50;;;23.50;50.20;;;26.94;34.69;101650.53;5094924;28;20044;-8
2021/09/04 08:30:16;;;;;;;1.60;1.50;;;23.40;50.30;;;26.95;34.74;101657.59;5095118;28;20472;-8
2021/09/04 08:32:43;;;;;;;1.88;1.67;;;23.40;50.40;;;26.96;34.88;101661.13;5094931;28;20402;-8
2021/09/04 08:35:09;;;;;;;1.88;1.77;;;23.30;50.40;;;26.95;34.61;101659.44;5074828;28;20060;-8
2021/09/04 08:37:39;;;;;;;1.63;1.52;;;23.30;50.30;;;26.97;34.58;101662.88;5094591;28;20515;-8
2021/09/04 08:40:06;;;;;;;1.73;1.57;;;23.40;50.30;;;27.02;34.42;101668.75;5094489;28;20060;-8
2021/09/04 08:42:32;;;;;;;2.22;1.70;;;23.40;50.30;;;26.99;34.55;101663.59;5094470;28;20097;-8
2021/09/04 08:44:57;;;;;;;1.65;1.55;;;23.40;50.40;;;27.01;34.51;101668.84;5075100;28;20060;-8
2021/09/04 08:47:23;;;;;;;2.10;1.90;;;23.40;50.40;;;27.02;34.76;101671.44;5094584;28;20044;-8
2021/09/04 08:49:49;;;;;;;2.13;1.73;;;23.40;50.40;;;27.02;34.42;101667.91;5075083;28;20052;-8
2021/09/04 08:52:18;;;;;;;2.50;1.90;;;23.40;50.20;;;27.01;34.54;101668.84;5094457;28;20054;-8
2021/09/04 08:54:48;;;;;;;2.40;1.77;;;23.50;50.20;;;27.03;34.72;101674.94;5093794;28;20047;-8
2021/09/04 08:57:14;;;;;;;2.33;1.60;;;23.50;50.20;;;27.04;34.34;101679.38;5094768;28;20044;-8
2021/09/04 08:59:40;;;;;;;2.00;1.80;;;23.40;50.20;;;27.05;34.50;101676.56;5094011;28;20047;-8
2021/09/04 09:02:13;;;;;;;2.70;2.00;;;23.40;50.20;;;27.03;34.69;101683.00;5094375;28;20401;-8
2021/09/04 09:04:39;;;;;;;1.85;1.75;;;23.40;50.30;;;27.04;34.62;101685.56;5094589;28;20059;-8
2021/09/04 09:07:08;;;;;;;1.80;1.42;;;23.40;50.40;;;26.99;34.51;101685.91;5094423;28;20082;-8
2021/09/04 09:09:35;;;;;;;1.58;1.40;;;23.30;50.40;;;27.03;34.53;101686.56;5094129;28;20052;-8
2021/09/04 09:12:11;;;;;;;2.20;1.80;;;23.30;50.40;;;26.97;34.49;101687.88;5094213;28;20047;-8
2021/09/04 09:14:57;;;;;;;1.95;1.75;;;23.30;50.40;;;27.01;34.65;101688.50;5094133;28;20074;-8
2021/09/04 09:17:25;;;;;;;1.70;1.48;;;23.30;50.50;;;27.01;34.50;101690.31;5093935;28;20044;-8
2021/09/04 09:20:06;;;;;;;1.90;1.70;;;23.30;50.60;;;27.00;34.55;101694.84;5094117;28;20493;-8
2021/09/04 09:22:43;;;;;;;1.67;1.50;;;23.30;50.50;;;27.01;34.56;101695.69;5093978;28;20410;-8
2021/09/04 09:25:17;;;;;;;1.70;1.60;;;23.30;50.50;;;26.96;34.54;101683.50;5094156;28;20324;-8
2021/09/04 09:27:59;;;;;;;2.05;1.77;;;23.30;50.60;;;26.97;34.66;101692.38;5093585;28;20139;-8
2021/09/04 09:30:46;;;;;;;1.77;1.67;;;23.30;50.70;;;26.95;34.59;101699.69;5094148;28;20097;-10
2021/09/04 09:33:15;;;;;;;1.65;1.52;;;23.20;51.10;;;26.97;34.36;101700.44;5092633;28;20093;-9
2021/09/04 09:35:48;;;;;;;1.90;1.80;;;23.30;50.60;;;26.95;34.47;101700.56;5094128;28;20083;-8
2021/09/04 09:38:17;;;;;;;2.50;1.63;;;23.30;50.60;;;26.93;34.53;101691.75;5094032;28;20075;-9
2021/09/04 09:40:44;;;;;;;2.45;1.85;;;23.30;50.60;;;26.96;34.54;101704.09;5093741;28;20051;-8
2021/09/04 09:43:22;;;;;;;1.55;1.40;;;23.20;50.50;;;26.96;34.50;101699.59;5075504;28;20055;-8
2021/09/04 09:45:55;;;;;;;1.67;1.50;;;23.30;50.60;;;26.95;34.43;101702.38;5093928;28;20044;-8
2021/09/04 09:48:25;;;;;;;1.80;1.60;;;23.30;50.50;;;26.93;34.47;101702.50;5093588;28;20044;-8
2021/09/04 09:50:53;;;;;;;1.40;1.30;;;23.30;50.50;;;27.02;34.50;101702.78;5093962;28;20047;-8
2021/09/04 09:53:20;;;;;;;2.00;1.67;;;23.30;50.50;;;26.97;34.42;101701.28;5075459;28;20394;-8
2021/09/04 09:55:49;;;;;;;1.95;1.77;;;23.30;50.40;;;26.98;34.65;101699.44;5091475;28;20053;-8
2021/09/04 09:58:17;;;;;;;2.05;1.85;;;23.30;50.50;;;26.98;34.70;101704.81;5073202;28;20525;-8
2021/09/04 10:00:43;;;;;;;2.63;1.85;;;23.30;50.50;;;26.98;34.46;101699.44;5093963;28;20039;-8
2021/09/04 10:03:13;;;;;;;2.13;1.75;;;23.30;50.40;;;26.97;34.53;101700.44;5093368;28;20118;-8
2021/09/04 10:05:39;;;;;;;2.10;1.90;;;23.30;50.40;;;27.00;34.36;101708.25;5075198;28;20048;-8
2021/09/04 10:08:05;;;;;;;2.03;1.80;;;23.30;50.50;;;27.01;34.46;101714.47;5073934;28;20046;-8
2021/09/04 10:10:35;;;;;;;2.17;1.98;;;23.30;50.50;;;26.98;34.34;101710.19;5074160;28;20052;-8
2021/09/04 10:13:02;;;;;;;2.05;1.80;;;23.30;50.40;;;27.02;34.27;101713.53;5093133;28;20105;-8
2021/09/04 10:15:32;;;;;;;2.00;1.80;;;23.30;50.40;;;27.01;34.44;101706.44;5093116;28;20052;-8
2021/09/04 10:18:04;;;;;;;1.30;1.20;;;23.30;50.40;;;27.04;34.48;101707.06;5073399;28;20056;-10